createdAt,value
2017-10-17T00:01:07.078Z,0
2017-10-17T00:02:17.583Z,0
2017-10-17T00:03:28.109Z,0
2017-10-17T00:04:38.650Z,0
2017-10-17T00:05:49.178Z,0
2017-10-17T00:06:59.677Z,0
2017-10-17T00:08:10.177Z,0
2017-10-17T00:09:20.674Z,0
2017-10-17T00:10:31.205Z,0
2017-10-17T00:11:41.711Z,0
2017-10-17T00:12:52.220Z,0
2017-10-17T00:14:02.771Z,0
2017-10-17T00:15:13.368Z,0
2017-10-17T00:16:23.923Z,0
2017-10-17T00:17:34.436Z,0
2017-10-17T00:18:45.940Z,0
2017-10-17T00:19:56.466Z,0
2017-10-17T00:21:06.623Z,0
2017-10-17T00:22:17.403Z,0
2017-10-17T00:23:27.932Z,0
2017-10-17T00:24:38.445Z,0
2017-10-17T00:25:48.939Z,0
2017-10-17T00:26:59.458Z,0
2017-10-17T00:28:10.009Z,0
2017-10-17T00:29:20.539Z,0
2017-10-17T00:30:31.090Z,0
2017-10-17T00:31:41.688Z,0
2017-10-17T00:32:51.862Z,0
2017-10-17T00:34:02.057Z,0
2017-10-17T00:35:12.221Z,0
2017-10-17T00:36:22.832Z,0
2017-10-17T00:37:33.365Z,0
2017-10-17T00:38:43.920Z,0
2017-10-17T00:39:54.472Z,0
2017-10-17T00:41:04.972Z,0
2017-10-17T00:42:15.166Z,0
2017-10-17T00:43:26.708Z,0
2017-10-17T00:44:37.223Z,0
2017-10-17T00:45:47.736Z,0
2017-10-17T00:46:57.496Z,0
2017-10-17T00:48:07.568Z,0
2017-10-17T00:49:18.175Z,0
2017-10-17T00:50:28.897Z,0
2017-10-17T00:51:39.388Z,0
2017-10-17T00:52:49.915Z,0
2017-10-17T00:54:00.488Z,0
2017-10-17T00:55:11.027Z,0
2017-10-17T00:56:21.524Z,0
2017-10-17T00:57:32.135Z,0
2017-10-17T00:58:42.659Z,0
2017-10-17T00:59:53.202Z,0
2017-10-17T01:01:03.787Z,0
2017-10-17T01:02:14.285Z,0
2017-10-17T01:03:24.784Z,0
2017-10-17T01:04:35.319Z,0
2017-10-17T01:05:45.859Z,0
2017-10-17T01:06:56.378Z,0
2017-10-17T01:08:06.892Z,0
2017-10-17T01:09:17.443Z,0
2017-10-17T01:10:27.987Z,0
2017-10-17T01:11:38.518Z,0
2017-10-17T01:12:49.027Z,0
2017-10-17T01:13:59.525Z,0
2017-10-17T01:15:10.038Z,0
2017-10-17T01:16:20.671Z,0
2017-10-17T01:17:31.156Z,0
2017-10-17T01:18:41.705Z,0
2017-10-17T01:19:52.218Z,0
2017-10-17T01:21:02.715Z,0
2017-10-17T01:22:13.225Z,0
2017-10-17T01:23:23.771Z,0
2017-10-17T01:24:34.264Z,0
2017-10-17T01:25:44.508Z,0
2017-10-17T01:26:55.039Z,0
2017-10-17T01:28:05.219Z,0
2017-10-17T01:29:15.711Z,0
2017-10-17T01:30:26.217Z,0
2017-10-17T01:31:36.729Z,0
2017-10-17T01:32:47.239Z,0
2017-10-17T01:33:57.313Z,0
2017-10-17T01:35:07.817Z,0
2017-10-17T01:36:18.581Z,0
2017-10-17T01:37:29.100Z,0
2017-10-17T01:38:39.658Z,0
2017-10-17T01:39:50.193Z,0
2017-10-17T01:41:00.707Z,0
2017-10-17T01:42:11.215Z,0
2017-10-17T01:43:21.718Z,0
2017-10-17T01:44:31.820Z,0
2017-10-17T01:45:42.369Z,0
2017-10-17T01:46:52.875Z,0
2017-10-17T01:48:03.388Z,0
2017-10-17T01:49:13.876Z,0
2017-10-17T01:50:24.395Z,0
2017-10-17T01:51:34.908Z,0
2017-10-17T01:52:45.482Z,0
2017-10-17T01:53:55.994Z,0
2017-10-17T01:55:06.492Z,0
2017-10-17T01:56:16.994Z,0
2017-10-17T01:57:27.482Z,0
2017-10-17T01:58:37.974Z,0
2017-10-17T01:59:48.541Z,0
2017-10-17T02:00:59.063Z,0
2017-10-17T02:02:09.581Z,0
2017-10-17T02:03:20.219Z,0
2017-10-17T02:04:30.734Z,0
2017-10-17T02:05:41.243Z,0
2017-10-17T02:06:51.830Z,0
2017-10-17T02:08:02.339Z,0
2017-10-17T02:09:12.529Z,0
2017-10-17T02:10:23.094Z,0
2017-10-17T02:11:33.674Z,0
2017-10-17T02:12:44.162Z,0
2017-10-17T02:13:54.788Z,0
2017-10-17T02:15:05.315Z,0
2017-10-17T02:16:15.828Z,0
2017-10-17T02:17:26.387Z,0
2017-10-17T02:18:36.578Z,0
2017-10-17T02:19:47.166Z,0
2017-10-17T02:20:57.683Z,0
2017-10-17T02:22:08.186Z,0
2017-10-17T02:23:18.829Z,0
2017-10-17T02:24:28.920Z,0
2017-10-17T02:25:39.427Z,0
2017-10-17T02:26:49.940Z,0
2017-10-17T02:28:00.448Z,0
2017-10-17T02:29:10.973Z,0
2017-10-17T02:30:21.487Z,0
2017-10-17T02:31:31.985Z,0
2017-10-17T02:32:42.569Z,0
2017-10-17T02:33:53.076Z,0
2017-10-17T02:35:03.261Z,0
2017-10-17T02:36:13.771Z,0
2017-10-17T02:37:24.356Z,0
2017-10-17T02:38:34.894Z,0
2017-10-17T02:39:45.423Z,0
2017-10-17T02:40:56.036Z,0
2017-10-17T02:42:06.544Z,0
2017-10-17T02:43:17.079Z,0
2017-10-17T02:44:27.610Z,0
2017-10-17T02:45:38.141Z,0
2017-10-17T02:46:48.686Z,0
2017-10-17T02:47:59.191Z,0
2017-10-17T02:49:09.797Z,0
2017-10-17T02:50:20.406Z,0
2017-10-17T02:51:31.133Z,0
2017-10-17T02:52:41.736Z,0
2017-10-17T02:53:52.283Z,0
2017-10-17T02:55:02.829Z,0
2017-10-17T02:56:13.377Z,0
2017-10-17T02:57:24.004Z,0
2017-10-17T02:58:34.520Z,0
2017-10-17T02:59:45.034Z,0
2017-10-17T03:00:55.534Z,0
2017-10-17T03:02:06.038Z,0
2017-10-17T03:03:16.646Z,0
2017-10-17T03:04:27.176Z,0
2017-10-17T03:05:37.717Z,0
2017-10-17T03:06:48.211Z,0
2017-10-17T03:07:58.737Z,0
2017-10-17T03:09:09.262Z,0
2017-10-17T03:10:19.779Z,0
2017-10-17T03:11:30.273Z,0
2017-10-17T03:12:40.839Z,0
2017-10-17T03:13:51.094Z,0
2017-10-17T03:15:01.631Z,0
2017-10-17T03:16:12.155Z,0
2017-10-17T03:17:22.687Z,0
2017-10-17T03:18:33.220Z,0
2017-10-17T03:19:43.756Z,0
2017-10-17T03:20:54.364Z,0
2017-10-17T03:22:04.882Z,0
2017-10-17T03:23:15.393Z,0
2017-10-17T03:24:26.873Z,0
2017-10-17T03:25:37.367Z,0
2017-10-17T03:26:47.551Z,0
2017-10-17T03:27:58.072Z,0
2017-10-17T03:29:08.583Z,0
2017-10-17T03:30:18.833Z,0
2017-10-17T03:31:29.346Z,0
2017-10-17T03:32:39.577Z,0
2017-10-17T03:33:50.271Z,0
2017-10-17T03:35:00.831Z,0
2017-10-17T03:36:11.336Z,0
2017-10-17T03:37:21.913Z,0
2017-10-17T03:38:32.447Z,0
2017-10-17T03:39:42.958Z,0
2017-10-17T03:40:53.221Z,0
2017-10-17T03:42:03.601Z,0
2017-10-17T03:43:14.098Z,0
2017-10-17T03:44:24.630Z,0
2017-10-17T03:45:35.137Z,0
2017-10-17T03:46:45.220Z,0
2017-10-17T03:47:55.445Z,0
2017-10-17T03:49:05.737Z,0
2017-10-17T03:50:15.980Z,0
2017-10-17T03:51:26.481Z,0
2017-10-17T03:52:36.979Z,0
2017-10-17T03:53:47.494Z,0
2017-10-17T03:54:57.593Z,0
2017-10-17T03:56:08.344Z,0
2017-10-17T03:57:18.859Z,0
2017-10-17T03:58:29.381Z,0
2017-10-17T03:59:39.901Z,0
2017-10-17T04:00:50.640Z,0
2017-10-17T04:02:00.815Z,0
2017-10-17T04:03:10.918Z,0
2017-10-17T04:04:21.430Z,0
2017-10-17T04:05:31.955Z,0
2017-10-17T04:06:42.475Z,0
2017-10-17T04:07:53.015Z,0
2017-10-17T04:09:03.260Z,0
2017-10-17T04:10:13.758Z,0
2017-10-17T04:11:24.265Z,0
2017-10-17T04:12:34.890Z,0
2017-10-17T04:13:45.386Z,0
2017-10-17T04:14:55.555Z,0
2017-10-17T04:16:06.056Z,0
2017-10-17T04:17:16.636Z,0
2017-10-17T04:18:27.142Z,0
2017-10-17T04:19:37.732Z,0
2017-10-17T04:20:47.937Z,0
2017-10-17T04:21:58.462Z,0
2017-10-17T04:23:09.018Z,0
2017-10-17T04:24:19.567Z,0
2017-10-17T04:25:30.114Z,0
2017-10-17T04:26:40.694Z,0
2017-10-17T04:27:51.188Z,0
2017-10-17T04:29:01.706Z,0
2017-10-17T04:30:12.266Z,0
2017-10-17T04:31:22.770Z,0
2017-10-17T04:32:33.272Z,0
2017-10-17T04:33:43.778Z,0
2017-10-17T04:34:54.293Z,0
2017-10-17T04:36:04.372Z,0
2017-10-17T04:37:14.886Z,0
2017-10-17T04:38:25.393Z,0
2017-10-17T04:39:36.017Z,0
2017-10-17T04:40:46.593Z,0
2017-10-17T04:41:57.115Z,0
2017-10-17T04:43:07.646Z,0
2017-10-17T04:44:18.150Z,0
2017-10-17T04:45:28.643Z,0
2017-10-17T04:46:39.188Z,0
2017-10-17T04:47:49.792Z,0
2017-10-17T04:48:59.977Z,0
2017-10-17T04:50:10.493Z,0
2017-10-17T04:51:21.007Z,0
2017-10-17T04:52:31.547Z,0
2017-10-17T04:53:42.061Z,0
2017-10-17T04:54:52.601Z,0
2017-10-17T04:56:02.715Z,0
2017-10-17T04:57:13.227Z,0
2017-10-17T04:58:23.774Z,0
2017-10-17T04:59:33.997Z,0
2017-10-17T05:00:44.751Z,0
2017-10-17T05:01:55.334Z,0
2017-10-17T05:03:05.196Z,0
2017-10-17T05:04:15.701Z,0
2017-10-17T05:05:26.497Z,0
2017-10-17T05:06:36.986Z,0
2017-10-17T05:07:47.503Z,0
2017-10-17T05:08:58.150Z,0
2017-10-17T05:10:08.700Z,0
2017-10-17T05:11:19.212Z,0
2017-10-17T05:12:29.316Z,0
2017-10-17T05:13:39.831Z,0
2017-10-17T05:14:50.348Z,0
2017-10-17T05:16:00.969Z,0
2017-10-17T05:17:11.477Z,0
2017-10-17T05:18:22.176Z,0
2017-10-17T05:19:32.697Z,0
2017-10-17T05:20:43.208Z,0
2017-10-17T05:21:53.711Z,0
2017-10-17T05:23:04.232Z,0
2017-10-17T05:24:14.741Z,0
2017-10-17T05:25:25.291Z,0
2017-10-17T05:26:35.789Z,0
2017-10-17T05:27:45.668Z,0
2017-10-17T05:28:56.192Z,0
2017-10-17T05:30:06.690Z,0
2017-10-17T05:31:17.357Z,0
2017-10-17T05:32:27.871Z,0
2017-10-17T05:33:38.428Z,0
2017-10-17T05:34:48.525Z,0
2017-10-17T05:35:59.216Z,5
2017-10-17T05:37:09.740Z,5
2017-10-17T05:38:20.259Z,5
2017-10-17T05:39:30.766Z,5
2017-10-17T05:40:40.849Z,5
2017-10-17T05:41:51.014Z,5
2017-10-17T05:43:00.865Z,5
2017-10-17T05:44:11.394Z,10
2017-10-17T05:45:21.889Z,10
2017-10-17T05:46:32.400Z,10
2017-10-17T05:47:42.916Z,10
2017-10-17T05:48:53.611Z,15
2017-10-17T05:50:04.118Z,15
2017-10-17T05:51:14.613Z,15
2017-10-17T05:52:25.193Z,15
2017-10-17T05:53:35.732Z,20
2017-10-17T05:54:46.312Z,20
2017-10-17T05:55:56.821Z,25
2017-10-17T05:57:07.323Z,25
2017-10-17T05:58:17.841Z,30
2017-10-17T05:59:27.730Z,30
2017-10-17T06:00:38.304Z,30
2017-10-17T06:01:48.896Z,35
2017-10-17T06:02:59.404Z,35
2017-10-17T06:04:09.911Z,40
2017-10-17T06:05:20.560Z,40
2017-10-17T06:06:31.080Z,40
2017-10-17T06:07:41.597Z,45
2017-10-17T06:08:52.162Z,45
2017-10-17T06:10:02.695Z,50
2017-10-17T06:11:13.225Z,50
2017-10-17T06:12:23.883Z,55
2017-10-17T06:13:34.406Z,55
2017-10-17T06:14:44.948Z,55
2017-10-17T06:15:55.511Z,60
2017-10-17T06:17:06.017Z,60
2017-10-17T06:18:16.199Z,65
2017-10-17T06:19:26.695Z,65
2017-10-17T06:20:37.223Z,70
2017-10-17T06:21:47.726Z,70
2017-10-17T06:22:57.950Z,70
2017-10-17T06:24:08.462Z,70
2017-10-17T06:25:18.967Z,70
2017-10-17T06:26:29.515Z,75
2017-10-17T06:27:40.063Z,75
2017-10-17T06:28:50.560Z,80
2017-10-17T06:30:00.733Z,80
2017-10-17T06:31:11.257Z,85
2017-10-17T06:32:21.444Z,85
2017-10-17T06:33:31.937Z,90
2017-10-17T06:34:42.447Z,90
2017-10-17T06:35:52.986Z,95
2017-10-17T06:37:03.711Z,100
2017-10-17T06:38:14.220Z,100
2017-10-17T06:39:24.820Z,105
2017-10-17T06:40:35.349Z,110
2017-10-17T06:41:45.547Z,115
2017-10-17T06:42:56.062Z,115
2017-10-17T06:44:06.643Z,120
2017-10-17T06:45:17.155Z,125
2017-10-17T06:46:27.725Z,130
2017-10-17T06:47:38.321Z,140
2017-10-17T06:48:48.828Z,140
2017-10-17T06:49:59.343Z,145
2017-10-17T06:51:09.879Z,145
2017-10-17T06:52:20.402Z,150
2017-10-17T06:53:30.928Z,155
2017-10-17T06:54:41.150Z,155
2017-10-17T06:55:51.899Z,155
2017-10-17T06:57:02.420Z,160
2017-10-17T06:58:12.628Z,170
2017-10-17T06:59:22.840Z,175
2017-10-17T07:00:33.362Z,225
2017-10-17T07:01:43.902Z,300
2017-10-17T07:02:54.445Z,340
2017-10-17T07:04:04.941Z,370
2017-10-17T07:05:15.681Z,390
2017-10-17T07:06:25.917Z,410
2017-10-17T07:07:36.445Z,425
2017-10-17T07:08:47.126Z,435
2017-10-17T07:09:57.626Z,460
2017-10-17T07:11:08.151Z,470
2017-10-17T07:12:18.748Z,480
2017-10-17T07:13:29.260Z,500
2017-10-17T07:14:39.806Z,515
2017-10-17T07:15:50.329Z,520
2017-10-17T07:17:00.889Z,530
2017-10-17T07:18:11.173Z,555
2017-10-17T07:19:21.715Z,570
2017-10-17T07:20:32.222Z,585
2017-10-17T07:21:42.760Z,595
2017-10-17T07:22:54.774Z,610
2017-10-17T07:24:06.121Z,615
2017-10-17T07:27:45.161Z,660
2017-10-17T07:28:56.716Z,670
2017-10-17T07:30:07.266Z,660
2017-10-17T07:31:17.787Z,675
2017-10-17T07:32:28.011Z,685
2017-10-17T07:33:38.795Z,695
2017-10-17T07:34:49.310Z,710
2017-10-17T07:35:59.508Z,750
2017-10-17T07:37:10.109Z,815
2017-10-17T07:38:20.661Z,850
2017-10-17T07:39:31.481Z,870
2017-10-17T07:40:42.004Z,875
2017-10-17T07:41:52.510Z,900
2017-10-17T07:43:03.122Z,925
2017-10-17T07:44:13.681Z,940
2017-10-17T07:45:24.189Z,905
2017-10-17T07:46:34.730Z,875
2017-10-17T07:47:45.265Z,885
2017-10-17T07:48:55.766Z,880
2017-10-17T07:50:06.307Z,875
2017-10-17T07:51:16.380Z,885
2017-10-17T07:52:26.633Z,925
2017-10-17T07:53:37.256Z,965
2017-10-17T07:54:47.493Z,990
2017-10-17T07:55:58.247Z,960
2017-10-17T07:57:08.785Z,945
2017-10-17T07:58:19.312Z,930
2017-10-17T07:59:29.813Z,925
2017-10-17T08:00:40.377Z,935
2017-10-17T08:01:50.969Z,955
2017-10-17T08:03:01.487Z,1000
2017-10-17T08:04:12.023Z,1080
2017-10-17T08:05:22.530Z,1115
2017-10-17T08:06:34.476Z,1085
2017-10-17T08:07:45.103Z,1045
2017-10-17T08:08:55.637Z,1020
2017-10-17T08:12:37.016Z,1170
2017-10-17T08:13:47.551Z,1315
2017-10-17T08:14:58.071Z,1260
2017-10-17T08:16:08.656Z,1190
2017-10-17T08:17:19.309Z,1270
2017-10-17T08:18:29.518Z,1260
2017-10-17T08:20:56.271Z,1150
2017-10-17T08:22:06.840Z,1175
2017-10-17T08:23:17.388Z,1240
2017-10-17T08:24:27.919Z,1270
2017-10-17T08:25:38.106Z,1240
2017-10-17T08:26:48.628Z,1240
2017-10-17T08:28:01.662Z,1235
2017-10-17T08:29:12.183Z,1255
2017-10-17T08:31:36.419Z,1290
2017-10-17T08:35:12.945Z,1450
2017-10-17T08:36:23.550Z,1460
2017-10-17T08:40:01.662Z,1470
2017-10-17T08:41:14.868Z,1435
2017-10-17T08:42:26.428Z,1425
2017-10-17T08:43:37.068Z,1445
2017-10-17T08:44:47.595Z,1485
2017-10-17T08:45:57.858Z,1480
2017-10-17T08:47:08.434Z,1435
2017-10-17T08:48:18.969Z,1415
2017-10-17T08:49:29.514Z,1420
2017-10-17T08:50:40.245Z,1440
2017-10-17T08:51:50.884Z,1430
2017-10-17T08:53:01.418Z,1420
2017-10-17T08:54:11.955Z,1430
2017-10-17T08:55:22.485Z,1435
2017-10-17T08:56:32.629Z,1450
2017-10-17T08:57:43.178Z,1485
2017-10-17T08:58:53.720Z,1560
2017-10-17T09:00:04.239Z,1590
2017-10-17T09:01:14.341Z,1585
2017-10-17T09:02:24.865Z,1555
2017-10-17T09:03:33.661Z,1570
2017-10-17T09:04:42.478Z,1610
2017-10-17T09:05:53.029Z,1595
2017-10-17T09:07:03.837Z,1520
2017-10-17T09:08:14.044Z,1480
2017-10-17T09:09:23.017Z,1485
2017-10-17T09:10:33.463Z,1490
2017-10-17T09:11:42.277Z,1530
2017-10-17T09:12:53.154Z,1585
2017-10-17T09:14:02.282Z,1630
2017-10-17T09:15:11.094Z,1745
2017-10-17T09:16:20.748Z,1855
2017-10-17T09:17:31.308Z,1900
2017-10-17T09:18:40.115Z,1850
2017-10-17T09:19:49.655Z,1750
2017-10-17T09:21:00.595Z,1695
2017-10-17T09:22:11.896Z,1690
2017-10-17T09:23:20.690Z,1700
2017-10-17T09:24:30.911Z,1690
2017-10-17T09:25:44.109Z,1665
2017-10-17T09:26:55.633Z,1700
2017-10-17T09:28:04.786Z,1735
2017-10-17T09:29:15.349Z,1735
2017-10-17T09:30:26.292Z,1715
2017-10-17T09:31:36.491Z,1685
2017-10-17T09:32:46.725Z,1660
2017-10-17T09:33:57.258Z,1665
2017-10-17T09:35:08.179Z,1675
2017-10-17T09:36:19.075Z,1710
2017-10-17T09:37:27.901Z,1740
2017-10-17T09:38:37.049Z,1800
2017-10-17T09:39:46.506Z,1830
2017-10-17T09:40:55.435Z,1850
2017-10-17T09:42:04.568Z,1860
2017-10-17T09:43:15.054Z,1855
2017-10-17T09:44:24.178Z,1890
2017-10-17T09:45:33.692Z,1940
2017-10-17T09:46:42.507Z,2020
2017-10-17T09:47:51.303Z,2045
2017-10-17T09:49:00.464Z,2005
2017-10-17T09:50:09.349Z,1910
2017-10-17T09:51:18.927Z,1855
2017-10-17T09:52:28.067Z,1850
2017-10-17T09:53:37.642Z,1875
2017-10-17T09:54:47.854Z,1870
2017-10-17T09:55:56.996Z,1870
2017-10-17T09:57:07.547Z,1865
2017-10-17T09:58:16.691Z,1870
2017-10-17T09:59:26.939Z,1900
2017-10-17T10:00:39.745Z,1950
2017-10-17T10:01:52.556Z,1915
2017-10-17T10:03:03.097Z,1850
2017-10-17T10:04:14.936Z,1805
2017-10-17T10:05:24.335Z,1805
2017-10-17T10:06:34.355Z,1800
2017-10-17T10:07:43.941Z,1795
2017-10-17T10:08:54.711Z,1770
2017-10-17T10:10:03.911Z,1790
2017-10-17T10:11:13.386Z,1800
2017-10-17T10:12:22.181Z,1820
2017-10-17T10:13:33.585Z,1820
2017-10-17T10:14:42.374Z,1835
2017-10-17T10:15:51.215Z,1840
2017-10-17T10:17:00.030Z,1780
2017-10-17T10:18:09.181Z,1725
2017-10-17T10:19:17.997Z,1720
2017-10-17T10:20:28.086Z,1740
2017-10-17T10:21:39.450Z,1795
2017-10-17T10:22:49.882Z,1830
2017-10-17T10:23:59.002Z,1845
2017-10-17T10:25:09.263Z,1865
2017-10-17T10:26:19.797Z,1870
2017-10-17T10:27:30.031Z,1830
2017-10-17T10:28:40.568Z,1835
2017-10-17T10:29:49.953Z,1840
2017-10-17T10:30:58.760Z,1895
2017-10-17T10:32:09.405Z,1910
2017-10-17T10:33:21.383Z,1845
2017-10-17T10:34:32.827Z,1770
2017-10-17T10:35:45.223Z,1725
2017-10-17T10:36:55.439Z,1700
2017-10-17T10:38:05.655Z,1735
2017-10-17T10:39:16.204Z,1830
2017-10-17T10:40:25.887Z,1895
2017-10-17T10:41:36.770Z,1965
2017-10-17T10:42:46.990Z,1980
2017-10-17T10:43:59.272Z,2000
2017-10-17T10:45:10.157Z,2005
2017-10-17T10:46:19.748Z,2030
2017-10-17T10:47:31.411Z,2055
2017-10-17T10:48:42.286Z,2035
2017-10-17T10:49:51.418Z,1940
2017-10-17T10:51:02.017Z,1815
2017-10-17T10:52:11.143Z,1825
2017-10-17T10:53:19.945Z,1870
2017-10-17T10:54:28.745Z,1895
2017-10-17T10:55:37.887Z,1895
2017-10-17T10:56:49.284Z,1815
2017-10-17T10:57:59.224Z,1735
2017-10-17T10:59:09.474Z,1640
2017-10-17T11:00:20.067Z,1655
2017-10-17T11:01:30.300Z,1720
2017-10-17T11:02:40.841Z,1795
2017-10-17T11:03:51.453Z,1860
2017-10-17T11:05:01.619Z,1860
2017-10-17T11:06:12.177Z,1825
2017-10-17T11:07:23.051Z,1805
2017-10-17T11:08:33.650Z,1785
2017-10-17T11:09:44.265Z,1765
2017-10-17T11:10:54.756Z,1790
2017-10-17T11:12:04.966Z,1830
2017-10-17T11:13:15.531Z,1810
2017-10-17T11:14:25.781Z,1760
2017-10-17T11:15:36.369Z,1730
2017-10-17T11:16:48.003Z,1735
2017-10-17T11:17:58.231Z,1795
2017-10-17T11:19:08.884Z,1845
2017-10-17T11:20:19.135Z,1880
2017-10-17T11:21:29.352Z,1875
2017-10-17T11:22:39.607Z,1850
2017-10-17T11:23:49.882Z,1835
2017-10-17T11:25:01.493Z,1855
2017-10-17T11:26:11.733Z,1845
2017-10-17T11:27:22.361Z,1855
2017-10-17T11:28:32.619Z,1860
2017-10-17T11:29:43.177Z,1855
2017-10-17T11:30:53.727Z,1795
2017-10-17T11:32:04.319Z,1725
2017-10-17T11:33:14.591Z,1670
2017-10-17T11:34:24.768Z,1655
2017-10-17T11:35:35.329Z,1675
2017-10-17T11:36:45.898Z,1665
2017-10-17T11:37:57.442Z,1645
2017-10-17T11:39:08.047Z,1635
2017-10-17T11:40:18.749Z,1655
2017-10-17T11:41:29.031Z,1665
2017-10-17T11:42:39.163Z,1645
2017-10-17T11:43:49.866Z,1640
2017-10-17T11:45:00.466Z,1635
2017-10-17T11:46:11.069Z,1640
2017-10-17T11:47:21.629Z,1690
2017-10-17T11:48:32.267Z,1740
2017-10-17T11:49:42.831Z,1755
2017-10-17T11:50:53.426Z,1750
2017-10-17T11:52:03.814Z,1695
2017-10-17T11:53:14.173Z,1630
2017-10-17T11:54:24.739Z,1550
2017-10-17T11:55:35.325Z,1490
2017-10-17T11:56:46.019Z,1440
2017-10-17T11:57:56.592Z,1435
2017-10-17T11:59:07.203Z,1425
2017-10-17T12:00:17.871Z,1425
2017-10-17T12:01:28.432Z,1410
2017-10-17T12:02:39.020Z,1435
2017-10-17T12:03:49.593Z,1435
2017-10-17T12:05:00.294Z,1410
2017-10-17T12:06:10.898Z,1380
2017-10-17T12:07:21.038Z,1345
2017-10-17T12:08:31.611Z,1340
2017-10-17T12:09:42.185Z,1355
2017-10-17T12:10:52.776Z,1365
2017-10-17T12:12:03.450Z,1380
2017-10-17T12:13:14.000Z,1375
2017-10-17T12:14:24.593Z,1405
2017-10-17T12:15:35.170Z,1425
2017-10-17T12:16:45.403Z,1400
2017-10-17T12:17:55.656Z,1385
2017-10-17T12:19:06.353Z,1365
2017-10-17T12:20:18.682Z,1395
2017-10-17T12:22:41.880Z,1415
2017-10-17T12:23:52.128Z,1340
2017-10-17T12:25:02.798Z,1275
2017-10-17T12:26:13.060Z,1240
2017-10-17T12:27:23.608Z,1240
2017-10-17T12:28:34.174Z,1260
2017-10-17T12:29:44.753Z,1265
2017-10-17T12:30:55.390Z,1295
2017-10-17T12:32:05.992Z,1270
2017-10-17T12:33:16.563Z,1225
2017-10-17T12:34:26.830Z,1180
2017-10-17T12:35:37.426Z,1140
2017-10-17T12:36:48.038Z,1145
2017-10-17T12:38:02.011Z,1160
2017-10-17T12:39:13.602Z,1210
2017-10-17T12:40:24.181Z,1235
2017-10-17T12:41:34.728Z,1250
2017-10-17T12:42:45.329Z,1235
2017-10-17T12:43:55.915Z,1170
2017-10-17T12:45:06.495Z,1120
2017-10-17T12:46:17.061Z,1115
2017-10-17T12:47:27.651Z,1105
2017-10-17T12:49:49.616Z,1100
2017-10-17T12:51:00.197Z,1080
2017-10-17T12:52:10.756Z,1075
2017-10-17T12:53:21.365Z,1090
2017-10-17T12:54:32.003Z,1110
2017-10-17T12:55:42.660Z,1125
2017-10-17T12:56:53.347Z,1110
2017-10-17T12:58:03.896Z,1080
2017-10-17T12:59:14.474Z,1045
2017-10-17T13:00:25.163Z,1020
2017-10-17T13:01:35.739Z,1025
2017-10-17T13:02:46.322Z,1030
2017-10-17T13:03:56.556Z,1025
2017-10-17T13:05:07.143Z,980
2017-10-17T13:06:17.691Z,930
2017-10-17T13:07:28.530Z,920
2017-10-17T13:08:39.124Z,925
2017-10-17T13:09:49.730Z,935
2017-10-17T13:11:00.291Z,915
2017-10-17T13:12:10.870Z,910
2017-10-17T13:13:23.412Z,880
2017-10-17T13:14:34.072Z,860
2017-10-17T13:15:44.633Z,855
2017-10-17T13:16:55.223Z,865
2017-10-17T13:18:05.783Z,835
2017-10-17T13:19:16.410Z,815
2017-10-17T13:20:27.015Z,775
2017-10-17T13:21:37.594Z,760
2017-10-17T13:22:48.270Z,795
2017-10-17T13:23:58.847Z,785
2017-10-17T13:25:16.642Z,800
2017-10-17T13:26:27.194Z,760
2017-10-17T13:27:37.756Z,730
2017-10-17T13:28:48.026Z,745
2017-10-17T13:29:58.638Z,725
2017-10-17T13:31:09.202Z,690
2017-10-17T13:32:20.769Z,675
2017-10-17T13:33:31.314Z,675
2017-10-17T13:34:41.959Z,675
2017-10-17T13:35:52.116Z,675
2017-10-17T13:37:02.678Z,680
2017-10-17T13:38:13.289Z,685
2017-10-17T13:39:23.930Z,660
2017-10-17T13:40:34.538Z,705
2017-10-17T13:41:45.176Z,680
2017-10-17T13:42:55.730Z,685
2017-10-17T13:44:06.292Z,700
2017-10-17T13:45:16.940Z,675
2017-10-17T13:46:27.516Z,670
2017-10-17T13:47:38.082Z,670
2017-10-17T13:48:48.671Z,660
2017-10-17T13:49:59.309Z,635
2017-10-17T13:51:09.546Z,610
2017-10-17T13:52:20.100Z,570
2017-10-17T13:53:30.645Z,545
2017-10-17T13:54:41.223Z,535
2017-10-17T13:55:51.827Z,535
2017-10-17T13:57:02.488Z,555
2017-10-17T13:58:13.032Z,580
2017-10-17T13:59:23.668Z,605
2017-10-17T14:00:34.245Z,610
2017-10-17T14:01:44.819Z,595
2017-10-17T14:02:55.406Z,570
2017-10-17T14:04:06.003Z,565
2017-10-17T14:05:16.598Z,570
2017-10-17T14:06:27.198Z,555
2017-10-17T14:07:37.968Z,555
2017-10-17T14:08:48.676Z,545
2017-10-17T14:09:59.268Z,520
2017-10-17T14:11:09.867Z,515
2017-10-17T14:12:20.461Z,520
2017-10-17T14:13:31.069Z,515
2017-10-17T14:14:41.869Z,515
2017-10-17T14:15:52.433Z,520
2017-10-17T14:17:04.136Z,505
2017-10-17T14:18:14.750Z,485
2017-10-17T14:19:25.625Z,470
2017-10-17T14:20:36.195Z,460
2017-10-17T14:21:46.454Z,445
2017-10-17T14:22:57.033Z,445
2017-10-17T14:24:07.620Z,440
2017-10-17T14:25:18.245Z,440
2017-10-17T14:26:28.827Z,440
2017-10-17T14:27:39.430Z,455
2017-10-17T14:28:50.038Z,450
2017-10-17T14:30:00.593Z,450
2017-10-17T14:31:11.204Z,440
2017-10-17T14:32:21.817Z,435
2017-10-17T14:33:32.446Z,425
2017-10-17T14:34:43.030Z,420
2017-10-17T14:35:53.655Z,405
2017-10-17T14:37:04.226Z,400
2017-10-17T14:38:15.030Z,400
2017-10-17T14:39:25.625Z,405
2017-10-17T14:40:36.197Z,380
2017-10-17T14:41:46.346Z,380
2017-10-17T14:42:56.984Z,370
2017-10-17T14:44:07.571Z,370
2017-10-17T14:45:18.173Z,350
2017-10-17T14:46:28.757Z,330
2017-10-17T14:47:39.305Z,330
2017-10-17T14:48:49.907Z,325
2017-10-17T14:50:00.584Z,320
2017-10-17T14:51:11.156Z,305
2017-10-17T14:52:21.735Z,290
2017-10-17T14:53:32.395Z,280
2017-10-17T14:54:43.020Z,275
2017-10-17T14:55:53.573Z,270
2017-10-17T14:57:04.162Z,265
2017-10-17T14:58:14.742Z,255
2017-10-17T14:59:25.322Z,235
2017-10-17T15:00:35.886Z,230
2017-10-17T15:01:46.486Z,215
2017-10-17T15:02:57.061Z,195
2017-10-17T15:04:07.681Z,175
2017-10-17T15:05:18.271Z,165
2017-10-17T15:06:28.524Z,160
2017-10-17T15:07:39.087Z,150
2017-10-17T15:08:49.665Z,145
2017-10-17T15:10:00.258Z,140
2017-10-17T15:11:10.204Z,135
2017-10-17T15:12:20.822Z,135
2017-10-17T15:13:31.425Z,130
2017-10-17T15:14:42.030Z,125
2017-10-17T15:15:52.596Z,120
2017-10-17T15:17:03.203Z,120
2017-10-17T15:18:13.828Z,115
2017-10-17T15:19:24.395Z,110
2017-10-17T15:20:34.971Z,105
2017-10-17T15:21:45.534Z,105
2017-10-17T15:22:56.801Z,100
2017-10-17T15:24:07.366Z,100
2017-10-17T15:25:17.947Z,95
2017-10-17T15:26:28.494Z,90
2017-10-17T15:27:39.067Z,90
2017-10-17T15:28:49.635Z,85
2017-10-17T15:30:00.275Z,85
2017-10-17T15:31:10.853Z,85
2017-10-17T15:32:21.434Z,85
2017-10-17T15:33:31.379Z,80
2017-10-17T15:34:41.943Z,75
2017-10-17T15:35:52.526Z,70
2017-10-17T15:37:03.130Z,70
2017-10-17T15:38:14.796Z,65
2017-10-17T15:39:25.400Z,65
2017-10-17T15:40:36.011Z,60
2017-10-17T15:41:46.615Z,60
2017-10-17T15:42:57.269Z,55
2017-10-17T15:44:07.929Z,50
2017-10-17T15:45:18.520Z,50
2017-10-17T15:46:29.117Z,45
2017-10-17T15:47:39.385Z,45
2017-10-17T15:48:49.992Z,45
2017-10-17T15:50:00.659Z,45
2017-10-17T15:51:11.367Z,40
2017-10-17T15:52:22.001Z,40
2017-10-17T15:53:32.255Z,35
2017-10-17T15:54:42.914Z,35
2017-10-17T15:55:53.623Z,35
2017-10-17T15:57:04.200Z,30
2017-10-17T15:58:14.828Z,30
2017-10-17T15:59:25.458Z,25
2017-10-17T16:00:36.056Z,25
2017-10-17T16:01:46.629Z,25
2017-10-17T16:02:57.244Z,20
2017-10-17T16:04:07.932Z,20
2017-10-17T16:05:18.660Z,15
2017-10-17T16:06:29.264Z,15
2017-10-17T16:07:39.545Z,15
2017-10-17T16:08:50.234Z,15
2017-10-17T16:10:01.019Z,10
2017-10-17T16:11:11.664Z,10
2017-10-17T16:12:22.514Z,10
2017-10-17T16:13:32.785Z,10
2017-10-17T16:14:43.110Z,5
2017-10-17T16:15:53.876Z,5
2017-10-17T16:17:04.691Z,5
2017-10-17T16:18:14.695Z,5
2017-10-17T16:19:25.055Z,5
2017-10-17T16:20:35.665Z,5
2017-10-17T16:21:46.360Z,0
2017-10-17T16:22:57.047Z,0
2017-10-17T16:24:07.700Z,0
2017-10-17T16:25:18.374Z,0
2017-10-17T16:26:29.105Z,0
2017-10-17T16:27:39.963Z,0
2017-10-17T16:28:50.611Z,0
2017-10-17T16:30:02.414Z,0
2017-10-17T16:31:12.784Z,0
2017-10-17T16:32:23.098Z,0
2017-10-17T16:33:33.787Z,0
2017-10-17T16:34:44.443Z,0
2017-10-17T16:35:55.139Z,0
2017-10-17T16:37:05.769Z,0
2017-10-17T16:38:16.370Z,0
2017-10-17T16:39:26.642Z,0
2017-10-17T16:40:37.305Z,0
2017-10-17T16:41:47.989Z,0
2017-10-17T16:42:58.806Z,0
2017-10-17T16:44:09.436Z,0
2017-10-17T16:45:20.082Z,0